Time;durP1;ratioP1;P1;durP2;ratioP2;P2;SDS_P1;SDS_P2;PMS_P1;PMS_P2;Temp;Humidity;BMP_temperature;BMP_pressure;BME280_temperature;BME280_humidity;BME280_pressure;Samples;Min_cycle;Max_cycle;Signal;HPM_P1;HPM_P2
2022/11/05 00:10:57;;;;;;;3.65;0.40;;;18.60;1.00;;;;;;4842358;29;20045;-50
2022/11/05 00:19:07;;;;;;;3.95;0.63;;;18.50;1.00;;;;;;4842285;29;20165;-52
2022/11/05 00:25:24;;;;;;;1.15;0.40;;;18.50;1.00;;;;;;4854594;29;20502;-50
2022/11/05 00:27:19;;;;;;;1.00;0.40;;;18.50;1.00;;;;;;4871011;29;20068;-50
2022/11/05 00:29:46;;;;;;;0.35;0.10;;;18.50;1.00;;;;;;4878875;29;20057;-53
2022/11/05 00:32:13;;;;;;;2.42;0.20;;;18.40;1.00;;;;;;4879313;29;20398;-48
2022/11/05 00:34:39;;;;;;;2.83;0.25;;;18.40;1.00;;;;;;4879563;29;20460;-51
2022/11/05 00:37:06;;;;;;;2.35;0.40;;;18.40;1.00;;;;;;4879289;29;20045;-49
2022/11/05 00:39:33;;;;;;;3.15;0.38;;;18.40;1.00;;;;;;4878888;29;20049;-47
2022/11/05 00:45:00;;;;;;;3.65;0.32;;;18.30;1.00;;;;;;4879335;29;20496;-50
2022/11/05 00:50:15;;;;;;;1.67;0.13;;;18.20;1.00;;;;;;4878765;29;20045;-51
2022/11/05 00:52:54;;;;;;;1.15;0.20;;;18.20;1.00;;;;;;4879714;29;20052;-53
2022/11/05 00:55:23;;;;;;;1.08;0.32;;;18.20;1.00;;;;;;4879405;29;20049;-47
2022/11/05 00:57:50;;;;;;;3.05;0.93;;;18.20;1.00;;;;;;4879121;29;20045;-49
2022/11/05 01:00:17;;;;;;;2.08;0.20;;;18.20;1.00;;;;;;4878843;29;20518;-51
2022/11/05 01:02:44;;;;;;;0.57;0.15;;;18.20;1.00;;;;;;4863002;29;20065;-55
2022/11/05 01:05:12;;;;;;;2.08;0.57;;;18.20;1.00;;;;;;4860375;29;20061;-51
2022/11/05 01:07:39;;;;;;;0.50;0.30;;;18.10;1.00;;;;;;4860195;29;20488;-53
2022/11/05 01:10:06;;;;;;;0.73;0.30;;;18.10;1.00;;;;;;4860194;29;20407;-53
2022/11/05 01:12:33;;;;;;;2.90;0.30;;;18.10;1.00;;;;;;4860416;29;20045;-52
2022/11/05 01:15:00;;;;;;;0.60;0.30;;;18.00;1.00;;;;;;4860413;29;20041;-48
2022/11/05 01:17:27;;;;;;;1.25;0.85;;;18.10;1.00;;;;;;4860369;29;20045;-50
2022/11/05 01:19:54;;;;;;;2.50;0.50;;;18.10;1.00;;;;;;4860140;29;20105;-50
2022/11/05 01:22:21;;;;;;;3.75;0.30;;;18.00;1.00;;;;;;4862773;29;20461;-54
2022/11/05 01:24:48;;;;;;;1.00;0.25;;;18.00;1.00;;;;;;4873037;29;20124;-49
2022/11/05 01:27:15;;;;;;;1.25;0.30;;;18.00;1.00;;;;;;4882140;29;20484;-52
2022/11/05 01:29:41;;;;;;;2.55;0.70;;;18.00;1.00;;;;;;4881731;29;20045;-53
2022/11/05 01:32:08;;;;;;;1.50;0.28;;;18.00;1.00;;;;;;4881982;29;20093;-50
2022/11/05 01:34:35;;;;;;;1.45;0.40;;;17.90;1.00;;;;;;4882391;29;20453;-52
2022/11/05 01:37:02;;;;;;;3.22;0.30;;;17.90;1.00;;;;;;4882183;29;20048;-49
2022/11/05 01:39:29;;;;;;;0.43;0.20;;;17.90;1.00;;;;;;4881557;29;20056;-48
2022/11/05 01:41:57;;;;;;;2.78;0.30;;;17.90;1.00;;;;;;4881970;29;20037;-50
2022/11/05 01:44:55;;;;;;;1.20;0.20;;;17.90;1.00;;;;;;4882067;29;20076;-50
2022/11/05 01:47:35;;;;;;;1.00;0.20;;;17.80;1.00;;;;;;4881925;29;20124;-51
2022/11/05 01:50:19;;;;;;;1.35;0.50;;;17.80;1.00;;;;;;4881775;29;20041;-53
2022/11/05 01:52:48;;;;;;;2.05;0.20;;;17.80;1.00;;;;;;4881811;29;20045;-47
2022/11/05 01:55:22;;;;;;;1.48;0.30;;;17.80;1.00;;;;;;4881809;29;20119;-51
2022/11/05 01:57:50;;;;;;;0.80;0.60;;;17.80;1.00;;;;;;4864213;29;20082;-50
2022/11/05 02:00:17;;;;;;;1.17;0.25;;;17.80;1.00;;;;;;4862839;29;20049;-49
2022/11/05 02:02:44;;;;;;;1.10;0.60;;;17.70;1.00;;;;;;4863018;29;20116;-49
2022/11/05 02:05:13;;;;;;;1.00;0.20;;;17.80;1.00;;;;;;4863071;29;20041;-50
2022/11/05 02:07:43;;;;;;;1.30;0.20;;;17.70;1.00;;;;;;4862782;29;20049;-49
2022/11/05 02:10:13;;;;;;;1.77;0.65;;;17.70;1.00;;;;;;4862586;29;20046;-51
2022/11/05 02:12:43;;;;;;;3.15;0.30;;;17.70;1.00;;;;;;4863389;29;20071;-50
2022/11/05 02:15:12;;;;;;;1.65;0.40;;;17.70;1.00;;;;;;4863519;29;20377;-53
2022/11/05 02:18:01;;;;;;;1.08;0.20;;;17.70;1.00;;;;;;4862957;29;20492;-51
2022/11/05 02:20:39;;;;;;;1.38;0.50;;;17.70;1.00;;;;;;4862656;29;20050;-52
2022/11/05 02:23:35;;;;;;;0.35;0.20;;;17.70;1.00;;;;;;4863050;29;20050;-52
2022/11/05 02:26:35;;;;;;;2.35;0.30;;;17.60;1.00;;;;;;4844362;29;20453;-54
2022/11/05 02:29:30;;;;;;;2.20;0.30;;;17.60;1.00;;;;;;4843800;29;20449;-49
2022/11/05 02:32:09;;;;;;;1.02;0.30;;;17.60;1.00;;;;;;4844179;29;20048;-48
2022/11/05 02:34:54;;;;;;;1.52;0.35;;;17.60;1.00;;;;;;4844071;29;20408;-52
2022/11/05 02:37:38;;;;;;;1.75;0.10;;;17.60;1.00;;;;;;4844097;29;20046;-50
2022/11/05 02:40:27;;;;;;;0.50;0.13;;;17.60;1.00;;;;;;4843785;29;20054;-49
2022/11/05 02:43:14;;;;;;;1.30;0.30;;;17.60;1.00;;;;;;4843810;29;20412;-50
2022/11/05 02:46:06;;;;;;;0.65;0.20;;;17.50;1.00;;;;;;4843957;29;20052;-49
2022/11/05 02:48:56;;;;;;;2.63;0.40;;;17.50;1.00;;;;;;4843506;29;20442;-47
2022/11/05 02:51:37;;;;;;;1.10;0.20;;;17.50;1.00;;;;;;4843621;29;20040;-48
2022/11/05 02:54:19;;;;;;;1.23;0.20;;;17.50;1.00;;;;;;4843807;29;20420;-51
2022/11/05 02:56:49;;;;;;;2.33;0.47;;;17.50;1.00;;;;;;4843677;29;20409;-51
2022/11/05 02:59:19;;;;;;;1.67;0.40;;;17.50;1.00;;;;;;4843262;29;20061;-51
2022/11/05 03:01:47;;;;;;;0.40;0.10;;;17.50;1.00;;;;;;4843591;29;20046;-51
2022/11/05 03:04:17;;;;;;;0.45;0.10;;;17.50;1.00;;;;;;4843566;29;20064;-50
2022/11/05 03:06:50;;;;;;;2.30;0.38;;;17.50;1.00;;;;;;4843436;29;20041;-52
2022/11/05 03:09:47;;;;;;;0.93;0.30;;;17.50;1.00;;;;;;4843072;29;20050;-51
2022/11/05 03:12:33;;;;;;;1.15;0.43;;;17.40;1.00;;;;;;4843393;29;20136;-52
2022/11/05 03:15:14;;;;;;;1.30;0.20;;;17.40;1.00;;;;;;4843710;29;20492;-47
2022/11/05 03:17:41;;;;;;;1.00;0.40;;;17.40;1.00;;;;;;4843233;29;20050;-49
2022/11/05 03:20:17;;;;;;;1.17;0.40;;;17.40;1.00;;;;;;4842824;29;20420;-48
2022/11/05 03:23:07;;;;;;;1.85;0.40;;;17.40;1.00;;;;;;4843235;29;20057;-48
2022/11/05 03:25:47;;;;;;;2.20;0.43;;;17.40;1.00;;;;;;4873307;29;20088;-46
2022/11/05 03:28:19;;;;;;;1.73;0.40;;;17.40;1.00;;;;;;4880417;29;20065;-47
2022/11/05 03:30:49;;;;;;;0.40;0.22;;;17.30;1.00;;;;;;4879744;29;20047;-47
2022/11/05 03:33:25;;;;;;;1.23;0.20;;;17.30;1.00;;;;;;4880296;29;20050;-48
2022/11/05 03:36:07;;;;;;;1.60;0.32;;;17.30;1.00;;;;;;4878917;29;20056;-49
2022/11/05 03:38:38;;;;;;;0.82;0.32;;;17.30;1.00;;;;;;4879628;29;20045;-47
2022/11/05 03:41:11;;;;;;;1.35;0.30;;;17.30;1.00;;;;;;4879917;29;20389;-49
2022/11/05 03:43:43;;;;;;;2.10;0.60;;;17.30;1.00;;;;;;4879395;29;20048;-50
2022/11/05 03:46:25;;;;;;;1.08;0.30;;;17.30;1.00;;;;;;4879961;29;20071;-47
2022/11/05 03:48:54;;;;;;;0.52;0.13;;;17.30;1.00;;;;;;4879575;29;20083;-48
2022/11/05 03:52:28;;;;;;;3.08;0.52;;;17.30;1.00;;;;;;4880056;29;20044;-52
2022/11/05 03:54:55;;;;;;;2.75;0.30;;;17.30;1.00;;;;;;4833113;29;20417;-52
2022/11/05 03:57:30;;;;;;;2.45;0.20;;;17.20;1.00;;;;;;4825450;29;20505;-50
2022/11/05 03:59:57;;;;;;;2.80;0.40;;;17.20;1.00;;;;;;4869115;29;20080;-52
2022/11/05 04:02:25;;;;;;;2.28;0.47;;;17.20;1.00;;;;;;4879666;29;20083;-54
2022/11/05 04:04:53;;;;;;;1.52;0.47;;;17.20;1.00;;;;;;4879832;29;20079;-49
2022/11/05 04:18:23;;;;;;;0.80;0.32;;;17.20;1.00;;;;;;4879241;29;20396;-49
2022/11/05 04:26:22;;;;;;;2.10;0.30;;;17.20;1.00;;;;;;4842456;29;20046;-49
2022/11/05 04:31:36;;;;;;;4.95;1.15;;;17.20;1.00;;;;;;4841991;29;20050;-51
2022/11/05 04:34:03;;;;;;;0.50;0.20;;;17.10;1.00;;;;;;4842412;29;20492;-52
2022/11/05 04:36:30;;;;;;;0.65;0.30;;;17.20;1.00;;;;;;4842309;29;20060;-50
2022/11/05 04:38:57;;;;;;;1.15;0.22;;;17.10;1.00;;;;;;4842390;29;20042;-48
2022/11/05 04:41:25;;;;;;;2.15;0.47;;;17.10;1.00;;;;;;4842354;29;20046;-51
2022/11/05 04:43:52;;;;;;;2.15;0.57;;;17.10;1.00;;;;;;4842109;29;20045;-52
2022/11/05 04:46:18;;;;;;;2.20;0.40;;;17.10;1.00;;;;;;4842564;29;20434;-50
2022/11/05 04:48:45;;;;;;;1.95;0.20;;;17.10;1.00;;;;;;4842094;29;20042;-53
2022/11/05 04:51:12;;;;;;;2.53;0.40;;;17.10;1.00;;;;;;4842695;29;20144;-52
2022/11/05 04:53:39;;;;;;;1.48;0.40;;;17.10;1.00;;;;;;4842538;29;20050;-50
2022/11/05 04:56:19;;;;;;;1.77;0.40;;;17.10;1.00;;;;;;4842778;29;20046;-51
2022/11/05 04:58:46;;;;;;;1.60;0.22;;;17.10;1.00;;;;;;4845313;29;20405;-49
2022/11/05 05:01:19;;;;;;;3.22;0.40;;;17.10;1.00;;;;;;4845945;29;20080;-49
2022/11/05 05:03:47;;;;;;;2.22;0.52;;;17.10;1.00;;;;;;4845533;29;20053;-53
2022/11/05 05:06:14;;;;;;;1.55;0.75;;;17.10;1.00;;;;;;4845641;29;20053;-52
2022/11/05 05:08:41;;;;;;;2.28;0.60;;;17.10;1.00;;;;;;4845422;29;20045;-49
2022/11/05 05:11:10;;;;;;;3.03;0.38;;;17.10;1.00;;;;;;4845462;29;20046;-50
2022/11/05 05:13:37;;;;;;;1.60;0.22;;;17.10;1.00;;;;;;4845362;29;20049;-54
2022/11/05 05:16:10;;;;;;;2.63;0.40;;;17.00;1.00;;;;;;4845425;29;20053;-49
2022/11/05 05:18:37;;;;;;;1.40;0.50;;;17.00;1.00;;;;;;4845324;29;20061;-51
2022/11/05 05:23:56;;;;;;;1.17;0.47;;;17.00;1.00;;;;;;4850199;29;20095;-53
2022/11/05 05:26:23;;;;;;;1.25;0.45;;;17.00;1.00;;;;;;4882210;29;20048;-50
2022/11/05 05:28:51;;;;;;;2.08;0.40;;;17.00;1.00;;;;;;4881853;29;20048;-49
2022/11/05 05:31:19;;;;;;;2.83;0.50;;;17.00;1.00;;;;;;4882125;29;20472;-51
2022/11/05 05:33:46;;;;;;;2.95;0.40;;;17.00;1.00;;;;;;4882121;29;20052;-49
2022/11/05 05:36:13;;;;;;;0.73;0.40;;;17.00;1.00;;;;;;4882071;29;20101;-49
2022/11/05 05:38:40;;;;;;;1.40;0.47;;;17.00;1.00;;;;;;4881852;29;20049;-50
2022/11/05 05:41:07;;;;;;;0.68;0.32;;;17.00;1.00;;;;;;4882278;29;20057;-52
2022/11/05 05:43:34;;;;;;;1.80;0.60;;;17.00;1.00;;;;;;4881772;29;20053;-53
2022/11/05 05:46:06;;;;;;;2.20;0.50;;;17.00;1.00;;;;;;4881794;29;20109;-49
2022/11/05 05:48:33;;;;;;;1.13;0.25;;;17.00;1.00;;;;;;4881808;29;20053;-48
2022/11/05 05:51:05;;;;;;;0.63;0.43;;;17.00;1.00;;;;;;4881836;29;20053;-49
2022/11/05 05:53:33;;;;;;;0.90;0.30;;;17.00;1.00;;;;;;4881864;29;20049;-50
2022/11/05 05:56:00;;;;;;;1.30;0.40;;;17.00;1.00;;;;;;4881867;29;20053;-55
2022/11/05 05:58:32;;;;;;;0.88;0.30;;;17.00;1.00;;;;;;4881714;29;20052;-48
2022/11/05 06:01:00;;;;;;;1.15;0.50;;;17.00;1.00;;;;;;4881574;29;20080;-49
2022/11/05 06:03:27;;;;;;;2.53;0.60;;;17.00;1.00;;;;;;4881369;29;20053;-49
2022/11/05 06:05:59;;;;;;;2.05;0.30;;;16.90;1.00;;;;;;4881617;29;20045;-51
2022/11/05 06:08:26;;;;;;;1.30;0.52;;;16.90;1.00;;;;;;4880938;29;20406;-49
2022/11/05 06:10:53;;;;;;;1.38;0.40;;;16.90;1.00;;;;;;4881142;29;20152;-47
2022/11/05 06:13:19;;;;;;;0.82;0.35;;;16.90;1.00;;;;;;4881244;29;20474;-51
2022/11/05 06:15:46;;;;;;;0.68;0.40;;;16.90;1.00;;;;;;4881142;29;20045;-52
2022/11/05 06:18:13;;;;;;;1.92;0.30;;;16.90;1.00;;;;;;4881547;29;20073;-48
2022/11/05 06:20:40;;;;;;;0.70;0.40;;;16.90;1.00;;;;;;4881308;29;20061;-49
2022/11/05 06:23:07;;;;;;;3.17;0.93;;;16.90;1.00;;;;;;4881360;29;20065;-49
2022/11/05 06:25:34;;;;;;;1.00;0.52;;;16.90;1.00;;;;;;4866479;29;20049;-47
2022/11/05 06:28:06;;;;;;;2.95;0.68;;;16.90;1.00;;;;;;4862878;29;20122;-46
2022/11/05 06:30:33;;;;;;;1.20;0.35;;;16.90;1.00;;;;;;4862185;29;20045;-46
2022/11/05 06:33:06;;;;;;;1.52;0.50;;;16.90;1.00;;;;;;4862757;29;20041;-50
2022/11/05 06:35:33;;;;;;;0.47;0.20;;;16.90;1.00;;;;;;4863009;29;20053;-48
2022/11/05 06:38:00;;;;;;;4.40;0.60;;;16.90;1.00;;;;;;4862408;29;20053;-50
2022/11/05 06:40:28;;;;;;;2.35;0.60;;;16.90;1.00;;;;;;4861993;29;20179;-49
2022/11/05 06:42:54;;;;;;;0.88;0.47;;;16.90;1.00;;;;;;4862238;29;20053;-48
2022/11/05 06:45:21;;;;;;;2.63;0.80;;;16.90;1.00;;;;;;4858064;29;20045;-51
2022/11/05 06:47:55;;;;;;;0.80;0.50;;;16.90;1.00;;;;;;4858035;29;20049;-48
2022/11/05 06:50:23;;;;;;;2.70;1.58;;;16.80;1.00;;;;;;4861793;29;20510;-48
2022/11/05 06:52:58;;;;;;;1.25;0.45;;;16.80;1.00;;;;;;4862163;29;20049;-48
2022/11/05 06:55:28;;;;;;;0.93;0.40;;;16.80;1.00;;;;;;4862170;29;20117;-50
2022/11/05 06:57:55;;;;;;;2.10;0.50;;;16.80;1.00;;;;;;4862168;29;20101;-51
2022/11/05 07:00:23;;;;;;;2.13;0.47;;;16.80;1.00;;;;;;4861705;29;20049;-50
2022/11/05 07:02:50;;;;;;;2.35;0.85;;;16.80;1.00;;;;;;4861787;29;20053;-48
2022/11/05 07:05:17;;;;;;;0.90;0.40;;;16.80;1.00;;;;;;4861701;29;20049;-52
2022/11/05 07:07:44;;;;;;;0.68;0.25;;;16.80;1.00;;;;;;4861658;29;20064;-47
2022/11/05 07:10:14;;;;;;;2.80;0.55;;;16.80;1.00;;;;;;4861586;29;20052;-49
2022/11/05 07:12:41;;;;;;;3.63;0.40;;;16.80;1.00;;;;;;4861970;29;20480;-48
2022/11/05 07:15:10;;;;;;;0.98;0.30;;;16.80;1.00;;;;;;4861858;29;20389;-48
2022/11/05 07:17:37;;;;;;;3.88;0.90;;;16.80;1.00;;;;;;4861642;29;20416;-47
2022/11/05 07:20:06;;;;;;;1.60;0.50;;;16.70;1.00;;;;;;4860641;29;20048;-48
2022/11/05 07:22:34;;;;;;;1.52;0.60;;;16.80;1.00;;;;;;4861696;29;20049;-49
2022/11/05 07:25:01;;;;;;;1.17;0.32;;;16.70;1.00;;;;;;4859306;29;20046;-47
2022/11/05 07:27:28;;;;;;;4.35;0.70;;;16.70;1.00;;;;;;4848340;29;20056;-50
2022/11/05 07:29:55;;;;;;;2.47;0.63;;;16.70;1.00;;;;;;4842777;29;20042;-50
2022/11/05 07:32:22;;;;;;;2.70;1.05;;;16.70;1.00;;;;;;4842860;29;20042;-49
2022/11/05 07:34:49;;;;;;;5.68;0.68;;;16.70;1.00;;;;;;4842990;29;20049;-47
2022/11/05 07:37:15;;;;;;;8.23;0.60;;;16.70;1.00;;;;;;4843145;29;20094;-49
2022/11/05 07:39:42;;;;;;;5.55;1.20;;;16.70;1.00;;;;;;4842742;29;20050;-53
2022/11/05 07:42:12;;;;;;;3.53;0.85;;;16.60;1.00;;;;;;4842817;29;20054;-49
2022/11/05 07:44:39;;;;;;;3.50;0.80;;;16.40;1.00;;;;;;4842988;29;20038;-47
2022/11/05 07:47:06;;;;;;;6.57;1.00;;;16.50;1.00;;;;;;4842902;29;20041;-47
2022/11/05 07:49:33;;;;;;;5.78;1.20;;;16.50;1.00;;;;;;4842549;29;20053;-49
2022/11/05 07:52:00;;;;;;;8.55;1.35;;;16.40;1.00;;;;;;4852831;29;20049;-51
2022/11/05 07:54:27;;;;;;;2.75;1.67;;;16.30;1.00;;;;;;4862122;29;20522;-50
2022/11/05 07:56:54;;;;;;;5.25;1.27;;;16.30;1.00;;;;;;4866599;29;20061;-52
2022/11/05 07:59:21;;;;;;;2.28;1.50;;;16.30;1.00;;;;;;4865558;29;20040;-51
2022/11/05 08:01:48;;;;;;;2.75;0.80;;;16.30;1.00;;;;;;4874074;29;20090;-48
2022/11/05 08:04:15;;;;;;;3.08;0.52;;;16.30;1.00;;;;;;4861059;29;20046;-48
2022/11/05 08:06:41;;;;;;;2.33;0.90;;;16.30;1.00;;;;;;4871184;29;20093;-50
2022/11/05 08:09:08;;;;;;;8.05;1.10;;;16.40;1.00;;;;;;4879434;29;20124;-50
2022/11/05 08:11:35;;;;;;;4.45;1.80;;;16.40;1.00;;;;;;4879339;29;20045;-47
2022/11/05 08:14:02;;;;;;;2.78;0.98;;;16.40;1.00;;;;;;4878324;29;20048;-53
2022/11/05 08:16:29;;;;;;;4.63;0.90;;;16.40;1.00;;;;;;4861442;29;20597;-46
2022/11/05 08:18:56;;;;;;;4.95;1.23;;;16.40;1.00;;;;;;4860591;29;20045;-50
2022/11/05 08:21:23;;;;;;;2.45;0.68;;;16.40;1.00;;;;;;4860847;29;20042;-51
2022/11/05 08:23:50;;;;;;;5.03;1.33;;;16.40;1.00;;;;;;4861134;29;20053;-54
2022/11/05 08:26:18;;;;;;;6.32;0.98;;;16.40;1.00;;;;;;4848537;29;20050;-48
2022/11/05 08:28:45;;;;;;;3.75;0.93;;;16.40;1.00;;;;;;4860274;29;20436;-52
2022/11/05 08:31:13;;;;;;;2.38;1.00;;;16.40;1.00;;;;;;4864972;29;20065;-51
2022/11/05 08:33:40;;;;;;;5.70;1.05;;;16.40;1.00;;;;;;4883093;29;20064;-54
2022/11/05 08:36:06;;;;;;;4.45;0.77;;;16.40;1.00;;;;;;4883506;29;20053;-51
2022/11/05 08:38:33;;;;;;;3.45;0.85;;;16.40;1.00;;;;;;4882955;29;20045;-52
2022/11/05 08:41:00;;;;;;;1.77;0.85;;;16.40;1.00;;;;;;4881887;29;20053;-52
2022/11/05 08:43:27;;;;;;;1.08;0.65;;;16.40;1.00;;;;;;4883004;29;20045;-52
2022/11/05 08:45:54;;;;;;;3.60;0.70;;;16.50;1.00;;;;;;4883021;29;20046;-50
2022/11/05 08:48:21;;;;;;;2.33;0.98;;;16.50;1.00;;;;;;4882444;29;20077;-54
2022/11/05 08:50:48;;;;;;;4.90;0.90;;;16.40;1.00;;;;;;4881424;29;20096;-53
2022/11/05 08:53:15;;;;;;;2.20;0.82;;;16.40;1.00;;;;;;4882911;29;20049;-54
2022/11/05 08:55:43;;;;;;;1.67;0.80;;;16.50;1.00;;;;;;4882901;29;20104;-53
2022/11/05 08:58:13;;;;;;;1.52;0.60;;;16.50;1.00;;;;;;4882335;29;20045;-51
2022/11/05 09:00:42;;;;;;;4.25;0.82;;;16.50;1.00;;;;;;4882484;29;20064;-53
2022/11/05 09:03:09;;;;;;;3.55;1.38;;;16.50;1.00;;;;;;4882548;29;20483;-52
2022/11/05 09:05:38;;;;;;;3.45;0.70;;;16.60;1.00;;;;;;4878368;29;20041;-48
2022/11/05 09:08:06;;;;;;;3.35;1.00;;;16.50;1.00;;;;;;4863829;29;20185;-51
2022/11/05 09:10:33;;;;;;;7.03;0.73;;;16.60;1.00;;;;;;4863638;29;20064;-50
2022/11/05 09:13:00;;;;;;;1.40;0.50;;;16.60;1.00;;;;;;4863841;29;20051;-50
2022/11/05 09:15:27;;;;;;;1.63;0.65;;;16.60;1.00;;;;;;4864204;29;20441;-53
2022/11/05 09:17:55;;;;;;;1.90;0.65;;;16.60;1.00;;;;;;4863805;29;20071;-50
2022/11/05 09:20:22;;;;;;;1.45;0.57;;;16.60;1.00;;;;;;4863431;29;20136;-48
2022/11/05 09:22:49;;;;;;;4.88;1.00;;;16.60;1.00;;;;;;4863632;29;20074;-52
2022/11/05 09:25:16;;;;;;;1.70;0.60;;;16.70;1.00;;;;;;4864123;29;20405;-50
2022/11/05 09:27:43;;;;;;;2.50;0.60;;;16.70;1.00;;;;;;4863869;29;20385;-48
2022/11/05 09:30:12;;;;;;;2.17;0.70;;;16.70;1.00;;;;;;4863314;29;20488;-51
2022/11/05 09:32:39;;;;;;;1.02;0.45;;;16.70;1.00;;;;;;4863577;29;20048;-49
2022/11/05 09:35:07;;;;;;;2.45;0.73;;;16.70;1.00;;;;;;4863835;29;20105;-48
2022/11/05 09:37:35;;;;;;;2.33;0.77;;;16.70;1.00;;;;;;4863198;29;20071;-51
2022/11/05 09:40:02;;;;;;;2.25;0.73;;;16.70;1.00;;;;;;4862056;29;20053;-50
2022/11/05 09:42:36;;;;;;;2.40;0.82;;;16.70;1.00;;;;;;4862636;29;20480;-50
2022/11/05 09:45:15;;;;;;;1.98;0.85;;;16.70;1.00;;;;;;4863322;29;20042;-50
2022/11/05 09:47:47;;;;;;;2.45;1.00;;;16.70;1.00;;;;;;4863287;29;20050;-50
2022/11/05 09:50:31;;;;;;;1.77;0.80;;;16.70;1.00;;;;;;4862955;29;20051;-50
2022/11/05 09:52:58;;;;;;;1.85;0.80;;;16.70;1.00;;;;;;4863282;29;20058;-52
2022/11/05 09:55:31;;;;;;;2.03;0.73;;;16.60;1.00;;;;;;4863276;29;20049;-53
2022/11/05 09:58:01;;;;;;;2.83;0.73;;;16.70;1.00;;;;;;4863117;29;20061;-53
2022/11/05 10:00:30;;;;;;;4.65;0.82;;;16.60;1.00;;;;;;4862693;29;20097;-52
2022/11/05 10:03:10;;;;;;;2.22;0.82;;;16.70;1.00;;;;;;4863230;29;20101;-50
2022/11/05 10:05:39;;;;;;;1.20;0.57;;;16.70;1.00;;;;;;4867244;29;20037;-51
2022/11/05 10:08:29;;;;;;;3.65;0.82;;;16.60;1.00;;;;;;4881601;29;20065;-53
2022/11/05 10:11:11;;;;;;;1.42;0.43;;;16.60;1.00;;;;;;4881500;29;20535;-50
2022/11/05 10:13:57;;;;;;;0.90;0.43;;;16.60;1.00;;;;;;4881534;29;20069;-48
2022/11/05 10:16:26;;;;;;;1.20;0.50;;;16.60;1.00;;;;;;4881612;29;20128;-52
2022/11/05 10:19:23;;;;;;;1.92;1.08;;;16.60;1.00;;;;;;4880991;29;20049;-49
2022/11/05 10:22:01;;;;;;;3.33;0.98;;;16.60;1.00;;;;;;4881344;29;20124;-53
2022/11/05 10:24:33;;;;;;;1.52;0.52;;;16.60;1.00;;;;;;4881189;29;20059;-51
2022/11/05 10:27:00;;;;;;;2.20;1.27;;;16.60;1.00;;;;;;4881256;29;20496;-50
2022/11/05 10:29:33;;;;;;;1.00;0.40;;;16.60;1.00;;;;;;4879617;29;20087;-47
2022/11/05 10:32:04;;;;;;;3.88;0.45;;;16.60;1.00;;;;;;4881210;29;20053;-50
2022/11/05 10:34:34;;;;;;;1.55;0.60;;;16.60;1.00;;;;;;4881194;29;20053;-50
2022/11/05 10:37:02;;;;;;;4.20;1.08;;;16.60;1.00;;;;;;4881224;29;20120;-53
2022/11/05 10:39:31;;;;;;;1.48;0.40;;;16.60;1.00;;;;;;4880692;29;20044;-49
2022/11/05 10:42:19;;;;;;;2.05;0.70;;;16.60;1.00;;;;;;4881029;29;20053;-52
2022/11/05 10:44:57;;;;;;;1.70;0.65;;;16.60;1.00;;;;;;4880731;29;20097;-49
2022/11/05 10:47:42;;;;;;;1.52;0.73;;;16.60;1.00;;;;;;4881040;29;20084;-49
2022/11/05 10:50:14;;;;;;;1.05;0.47;;;16.60;1.00;;;;;;4880333;29;20544;-51
2022/11/05 10:53:06;;;;;;;2.10;0.75;;;16.60;1.00;;;;;;4880882;29;20049;-50
2022/11/05 10:55:59;;;;;;;2.08;0.52;;;16.60;1.00;;;;;;4880201;29;20053;-53
2022/11/05 10:58:29;;;;;;;5.05;0.50;;;16.60;1.00;;;;;;4878564;29;20061;-52
2022/11/05 11:00:56;;;;;;;3.75;0.63;;;16.60;1.00;;;;;;4880659;29;20460;-54
2022/11/05 11:03:40;;;;;;;1.35;0.90;;;16.60;1.00;;;;;;4880813;29;20131;-51
2022/11/05 11:06:27;;;;;;;1.33;0.40;;;16.60;1.00;;;;;;4872494;29;20050;-50
2022/11/05 11:08:57;;;;;;;2.63;0.50;;;16.60;1.00;;;;;;4861694;29;20093;-54
2022/11/05 11:11:40;;;;;;;1.52;0.73;;;16.60;1.00;;;;;;4861703;29;20113;-51
2022/11/05 11:14:13;;;;;;;2.22;0.50;;;16.60;1.00;;;;;;4860749;29;20053;-53
2022/11/05 11:16:44;;;;;;;0.75;0.17;;;16.60;1.00;;;;;;4862077;29;20053;-48
2022/11/05 11:19:30;;;;;;;0.80;0.30;;;16.60;1.00;;;;;;4861741;29;20049;-54
2022/11/05 11:22:03;;;;;;;1.60;0.45;;;16.60;1.00;;;;;;4861710;29;20496;-53
2022/11/05 11:24:46;;;;;;;1.65;0.55;;;16.60;1.00;;;;;;4862118;29;20078;-50
2022/11/05 11:27:32;;;;;;;1.83;0.60;;;16.60;1.00;;;;;;4861977;29;20047;-50
2022/11/05 11:30:01;;;;;;;2.83;0.57;;;16.70;1.00;;;;;;4861324;29;20042;-55
2022/11/05 11:32:34;;;;;;;1.40;0.50;;;16.60;1.00;;;;;;4861538;29;20391;-47
2022/11/05 11:35:02;;;;;;;2.08;0.60;;;16.60;1.00;;;;;;4861739;29;20516;-49
2022/11/05 11:37:36;;;;;;;1.67;0.50;;;16.60;1.00;;;;;;4861461;29;20048;-47
2022/11/05 11:40:22;;;;;;;1.15;0.75;;;16.60;1.00;;;;;;4861019;29;20101;-50
2022/11/05 11:42:59;;;;;;;1.38;0.38;;;16.60;1.00;;;;;;4861487;29;20075;-47
2022/11/05 11:45:37;;;;;;;3.15;0.70;;;16.60;1.00;;;;;;4861411;29;20060;-51
2022/11/05 11:48:06;;;;;;;1.95;0.47;;;16.60;1.00;;;;;;4861744;29;20038;-50
2022/11/05 11:50:36;;;;;;;2.38;0.50;;;16.60;1.00;;;;;;4860859;29;20488;-46
2022/11/05 11:53:18;;;;;;;1.65;0.52;;;16.60;1.00;;;;;;4861240;29;20052;-49
2022/11/05 11:56:02;;;;;;;1.30;0.35;;;16.60;1.00;;;;;;4861422;29;20060;-49
2022/11/05 11:58:36;;;;;;;;;;;16.60;1.00;;;;;;4861404;29;20045;-48
2022/11/05 12:01:21;;;;;;;2.33;0.60;;;16.60;1.00;;;;;;4861039;29;19924;-50
2022/11/05 12:04:14;;;;;;;0.65;0.40;;;16.60;1.00;;;;;;4861213;29;20057;-49
2022/11/05 12:07:08;;;;;;;1.15;0.32;;;16.60;1.00;;;;;;4872968;29;20110;-50
2022/11/05 12:10:02;;;;;;;2.97;0.52;;;16.60;1.00;;;;;;4879261;29;20048;-50
2022/11/05 12:12:47;;;;;;;;;;;16.60;1.00;;;;;;4880016;29;20437;-51
2022/11/05 12:15:47;;;;;;;3.00;0.65;;;16.60;1.00;;;;;;4879654;29;19931;-50
2022/11/05 12:18:32;;;;;;;0.95;0.40;;;16.70;1.00;;;;;;4873071;29;20428;-50
2022/11/05 12:21:30;;;;;;;1.48;0.45;;;16.60;1.00;;;;;;4879459;29;20055;-49
2022/11/05 12:24:40;;;;;;;1.23;0.43;;;16.60;1.00;;;;;;4879253;29;20064;-50
2022/11/05 12:27:17;;;;;;;1.73;0.50;;;16.60;1.00;;;;;;4879342;29;20041;-50
2022/11/05 12:30:10;;;;;;;2.47;0.85;;;16.60;1.00;;;;;;4879007;29;20387;-50
2022/11/05 12:32:53;;;;;;;3.63;0.40;;;16.60;1.00;;;;;;4879268;29;20045;-47
2022/11/05 12:35:22;;;;;;;2.23;0.50;;;16.60;1.00;;;;;;4879669;29;20109;-51
2022/11/05 12:38:14;;;;;;;1.88;0.60;;;16.60;1.00;;;;;;4879863;29;20045;-52
2022/11/05 12:40:56;;;;;;;2.40;0.40;;;16.60;1.00;;;;;;4879076;29;20045;-52
2022/11/05 12:43:46;;;;;;;1.13;0.43;;;16.70;1.00;;;;;;4879160;29;20053;-50
2022/11/05 12:46:23;;;;;;;2.67;0.70;;;16.70;1.00;;;;;;4879131;29;20465;-51
2022/11/05 12:49:51;;;;;;;2.63;0.60;;;16.70;1.00;;;;;;4879302;29;20049;-50
2022/11/05 12:52:25;;;;;;;1.95;0.57;;;16.60;1.00;;;;;;4840190;29;20117;-48
2022/11/05 12:54:58;;;;;;;1.13;0.43;;;16.70;1.00;;;;;;4879152;29;20053;-50
2022/11/05 12:57:28;;;;;;;3.33;0.52;;;16.70;1.00;;;;;;4879326;29;20080;-51
2022/11/05 13:00:19;;;;;;;1.27;0.40;;;16.70;1.00;;;;;;4878648;29;20045;-51
2022/11/05 13:02:55;;;;;;;2.00;0.75;;;16.70;1.00;;;;;;4879063;29;20067;-51
2022/11/05 13:05:39;;;;;;;2.40;0.63;;;16.70;1.00;;;;;;4876952;29;20084;-47
2022/11/05 13:08:08;;;;;;;3.47;0.55;;;16.70;1.00;;;;;;4859322;29;20137;-52
2022/11/05 13:10:59;;;;;;;6.50;1.42;;;16.70;1.00;;;;;;4860052;29;20042;-54
2022/11/05 13:13:41;;;;;;;1.20;0.70;;;16.70;1.00;;;;;;4860438;29;20049;-49
2022/11/05 13:16:12;;;;;;;3.22;0.50;;;16.70;1.00;;;;;;4860043;29;20504;-53
2022/11/05 13:18:47;;;;;;;5.60;1.00;;;16.70;1.00;;;;;;4863000;29;20054;-50
2022/11/05 13:21:16;;;;;;;4.18;1.00;;;16.70;1.00;;;;;;4863994;29;20057;-49
2022/11/05 13:23:52;;;;;;;3.42;0.73;;;16.70;1.00;;;;;;4864120;29;20045;-50
2022/11/05 13:26:37;;;;;;;0.93;0.40;;;16.70;1.00;;;;;;4864104;29;20701;-49
2022/11/05 13:29:16;;;;;;;6.88;1.02;;;16.70;1.00;;;;;;4863668;29;20379;-51
2022/11/05 13:31:50;;;;;;;1.98;0.50;;;16.70;1.00;;;;;;4863538;29;20049;-50
2022/11/05 13:34:16;;;;;;;2.60;0.55;;;16.70;1.00;;;;;;4863580;29;20052;-50
2022/11/05 13:39:50;;;;;;;1.90;0.57;;;16.70;1.00;;;;;;4863252;29;20483;-50
2022/11/05 13:42:54;;;;;;;1.50;0.88;;;16.70;1.00;;;;;;4863289;29;20049;-53
2022/11/05 13:45:30;;;;;;;2.70;0.50;;;16.70;1.00;;;;;;4863495;29;20056;-51
2022/11/05 13:48:34;;;;;;;2.40;0.70;;;16.70;1.00;;;;;;4863443;29;20042;-50
2022/11/05 13:51:08;;;;;;;3.60;0.75;;;16.70;1.00;;;;;;4863469;29;20484;-51
2022/11/05 13:54:11;;;;;;;2.08;0.52;;;16.70;1.00;;;;;;4863231;29;20051;-52
2022/11/05 13:57:07;;;;;;;4.30;0.77;;;16.70;1.00;;;;;;4863319;29;20053;-49
2022/11/05 13:59:54;;;;;;;1.92;0.70;;;16.70;1.00;;;;;;4862694;29;20073;-50
2022/11/05 14:02:30;;;;;;;3.17;0.65;;;16.70;1.00;;;;;;4862958;29;20049;-49
2022/11/05 14:04:59;;;;;;;2.10;0.73;;;16.70;1.00;;;;;;4863328;29;20073;-50
2022/11/05 14:07:34;;;;;;;1.80;0.50;;;16.70;1.00;;;;;;4863139;29;20045;-49
2022/11/05 14:10:33;;;;;;;2.03;0.73;;;16.70;1.00;;;;;;4862634;29;20072;-50
2022/11/05 14:13:14;;;;;;;3.22;1.02;;;16.70;1.00;;;;;;4839498;29;20085;-49
2022/11/05 14:15:54;;;;;;;1.30;0.73;;;16.70;1.00;;;;;;4863141;29;20412;-50
2022/11/05 14:18:23;;;;;;;2.10;0.55;;;16.70;1.00;;;;;;4862575;29;20054;-53
2022/11/05 14:20:59;;;;;;;1.00;0.50;;;16.70;1.00;;;;;;4862898;29;20042;-53